sensor_id;sensor_type;location;lat;lon;timestamp;pressure;altitude;pressure_sealevel;temperature;humidity
56456;BME280;42354;53.218;6.564;2023-12-20T00:00:24;100939.94;;;5.70;84.37
56456;BME280;42354;53.218;6.564;2023-12-20T00:02:49;100922.63;;;5.69;84.23
56456;BME280;42354;53.218;6.564;2023-12-20T00:05:15;100927.78;;;5.65;84.25
56456;BME280;42354;53.218;6.564;2023-12-20T00:07:41;100888.44;;;5.48;84.61
56456;BME280;42354;53.218;6.564;2023-12-20T00:10:06;100917.66;;;5.66;84.51
56456;BME280;42354;53.218;6.564;2023-12-20T00:12:32;100906.22;;;5.57;84.36
56456;BME280;42354;53.218;6.564;2023-12-20T00:14:58;100915.38;;;5.63;84.66
56456;BME280;42354;53.218;6.564;2023-12-20T00:17:23;100895.00;;;5.47;84.77
56456;BME280;42354;53.218;6.564;2023-12-20T00:19:49;100879.38;;;5.36;84.77
56456;BME280;42354;53.218;6.564;2023-12-20T00:22:14;100914.56;;;5.51;85.11
56456;BME280;42354;53.218;6.564;2023-12-20T00:24:40;100907.53;;;5.43;85.00
56456;BME280;42354;53.218;6.564;2023-12-20T00:27:05;100895.16;;;5.41;85.14
56456;BME280;42354;53.218;6.564;2023-12-20T00:29:31;100910.75;;;5.52;85.18
56456;BME280;42354;53.218;6.564;2023-12-20T00:31:56;100911.56;;;5.52;85.03
56456;BME280;42354;53.218;6.564;2023-12-20T00:34:22;100906.59;;;5.49;84.97
56456;BME280;42354;53.218;6.564;2023-12-20T00:36:47;100911.00;;;5.50;85.10
56456;BME280;42354;53.218;6.564;2023-12-20T00:39:13;100891.69;;;5.33;84.83
56456;BME280;42354;53.218;6.564;2023-12-20T00:41:38;100888.81;;;5.40;85.14
56456;BME280;42354;53.218;6.564;2023-12-20T00:44:04;100908.25;;;5.50;84.74
56456;BME280;42354;53.218;6.564;2023-12-20T00:46:30;100904.41;;;5.51;84.84
56456;BME280;42354;53.218;6.564;2023-12-20T00:48:55;100914.44;;;5.57;84.72
56456;BME280;42354;53.218;6.564;2023-12-20T00:51:21;100929.72;;;5.65;84.67
56456;BME280;42354;53.218;6.564;2023-12-20T00:53:49;100902.75;;;5.50;84.19
56456;BME280;42354;53.218;6.564;2023-12-20T00:56:15;100911.69;;;5.57;84.38
56456;BME280;42354;53.218;6.564;2023-12-20T00:58:40;100905.63;;;5.55;84.17
56456;BME280;42354;53.218;6.564;2023-12-20T01:01:06;100895.94;;;5.53;84.35
56456;BME280;42354;53.218;6.564;2023-12-20T01:03:31;100897.25;;;5.50;84.21
56456;BME280;42354;53.218;6.564;2023-12-20T01:05:57;100880.47;;;5.47;84.45
56456;BME280;42354;53.218;6.564;2023-12-20T01:08:22;100874.09;;;5.46;84.27
56456;BME280;42354;53.218;6.564;2023-12-20T01:10:48;100851.34;;;5.34;84.20
56456;BME280;42354;53.218;6.564;2023-12-20T01:13:13;100883.66;;;5.55;84.30
56456;BME280;42354;53.218;6.564;2023-12-20T01:15:39;100862.06;;;5.47;84.15
56456;BME280;42354;53.218;6.564;2023-12-20T01:18:05;100868.34;;;5.59;83.94
56456;BME280;42354;53.218;6.564;2023-12-20T01:20:30;100875.63;;;5.65;83.70
56456;BME280;42354;53.218;6.564;2023-12-20T01:22:56;100867.84;;;5.62;83.78
56456;BME280;42354;53.218;6.564;2023-12-20T01:25:22;100864.06;;;5.63;83.56
56456;BME280;42354;53.218;6.564;2023-12-20T01:27:47;100857.47;;;5.64;83.77
56456;BME280;42354;53.218;6.564;2023-12-20T01:30:13;100856.88;;;5.62;83.85
56456;BME280;42354;53.218;6.564;2023-12-20T01:32:38;100863.06;;;5.70;84.07
56456;BME280;42354;53.218;6.564;2023-12-20T01:35:04;100858.75;;;5.74;84.02
56456;BME280;42354;53.218;6.564;2023-12-20T01:37:30;100870.91;;;5.78;84.06
56456;BME280;42354;53.218;6.564;2023-12-20T01:39:55;100848.09;;;5.77;83.90
56456;BME280;42354;53.218;6.564;2023-12-20T01:42:21;100863.34;;;5.85;83.84
56456;BME280;42354;53.218;6.564;2023-12-20T01:44:47;100870.72;;;5.96;83.54
56456;BME280;42354;53.218;6.564;2023-12-20T01:47:13;100854.59;;;5.88;83.57
56456;BME280;42354;53.218;6.564;2023-12-20T01:49:39;100847.69;;;5.97;83.45
56456;BME280;42354;53.218;6.564;2023-12-20T01:52:06;100849.84;;;5.95;83.22
56456;BME280;42354;53.218;6.564;2023-12-20T01:54:32;100861.31;;;5.92;83.27
56456;BME280;42354;53.218;6.564;2023-12-20T01:56:58;100833.63;;;5.82;82.89
56456;BME280;42354;53.218;6.564;2023-12-20T01:59:24;100842.41;;;5.96;82.53
56456;BME280;42354;53.218;6.564;2023-12-20T02:01:50;100858.69;;;5.97;82.45
56456;BME280;42354;53.218;6.564;2023-12-20T02:04:16;100860.69;;;6.02;81.96
56456;BME280;42354;53.218;6.564;2023-12-20T02:06:42;100856.00;;;6.02;81.39
56456;BME280;42354;53.218;6.564;2023-12-20T02:09:08;100849.25;;;5.93;81.42
56456;BME280;42354;53.218;6.564;2023-12-20T02:11:34;100816.78;;;5.78;81.83
56456;BME280;42354;53.218;6.564;2023-12-20T02:14:00;100833.13;;;5.85;82.25
56456;BME280;42354;53.218;6.564;2023-12-20T02:16:26;100833.28;;;5.78;82.63
56456;BME280;42354;53.218;6.564;2023-12-20T02:18:53;100831.16;;;5.80;82.55
56456;BME280;42354;53.218;6.564;2023-12-20T02:21:32;100830.28;;;5.80;82.79
56456;BME280;42354;53.218;6.564;2023-12-20T02:23:59;100834.72;;;5.81;82.76
56456;BME280;42354;53.218;6.564;2023-12-20T02:26:24;100820.56;;;5.72;82.77
56456;BME280;42354;53.218;6.564;2023-12-20T02:28:50;100816.88;;;5.67;82.99
56456;BME280;42354;53.218;6.564;2023-12-20T02:31:15;100823.63;;;5.76;82.96
56456;BME280;42354;53.218;6.564;2023-12-20T02:33:41;100813.97;;;5.73;83.21
56456;BME280;42354;53.218;6.564;2023-12-20T02:36:07;100813.16;;;5.73;83.95
56456;BME280;42354;53.218;6.564;2023-12-20T02:38:32;100819.78;;;5.77;83.41
56456;BME280;42354;53.218;6.564;2023-12-20T02:40:59;100823.13;;;5.79;83.88
56456;BME280;42354;53.218;6.564;2023-12-20T02:43:24;100816.75;;;5.90;83.64
56456;BME280;42354;53.218;6.564;2023-12-20T02:45:50;100803.41;;;6.10;82.70
56456;BME280;42354;53.218;6.564;2023-12-20T02:48:15;100814.28;;;6.05;82.20
56456;BME280;42354;53.218;6.564;2023-12-20T02:50:41;100812.31;;;6.01;81.47
56456;BME280;42354;53.218;6.564;2023-12-20T02:53:06;100808.22;;;6.03;81.66
56456;BME280;42354;53.218;6.564;2023-12-20T02:55:31;100812.03;;;6.02;82.08
56456;BME280;42354;53.218;6.564;2023-12-20T02:57:57;100803.13;;;5.95;82.48
56456;BME280;42354;53.218;6.564;2023-12-20T03:00:23;100779.72;;;5.92;82.93
56456;BME280;42354;53.218;6.564;2023-12-20T03:02:49;100778.41;;;5.95;82.99
56456;BME280;42354;53.218;6.564;2023-12-20T03:05:15;100806.66;;;6.07;83.39
56456;BME280;42354;53.218;6.564;2023-12-20T03:07:40;100779.22;;;5.96;83.43
56456;BME280;42354;53.218;6.564;2023-12-20T03:10:08;100774.97;;;6.05;83.87
56456;BME280;42354;53.218;6.564;2023-12-20T03:12:34;100786.22;;;6.03;83.66
56456;BME280;42354;53.218;6.564;2023-12-20T03:15:00;100782.41;;;6.04;83.66
56456;BME280;42354;53.218;6.564;2023-12-20T03:17:25;100759.78;;;5.97;83.92
56456;BME280;42354;53.218;6.564;2023-12-20T03:19:51;100762.00;;;6.00;83.69
56456;BME280;42354;53.218;6.564;2023-12-20T03:22:16;100786.06;;;6.10;83.76
56456;BME280;42354;53.218;6.564;2023-12-20T03:24:42;100788.41;;;6.18;83.55
56456;BME280;42354;53.218;6.564;2023-12-20T03:27:07;100779.44;;;6.23;83.79
56456;BME280;42354;53.218;6.564;2023-12-20T03:29:33;100784.00;;;6.34;83.47
56456;BME280;42354;53.218;6.564;2023-12-20T03:31:58;100761.56;;;6.42;82.88
56456;BME280;42354;53.218;6.564;2023-12-20T03:34:23;100719.38;;;6.31;81.83
56456;BME280;42354;53.218;6.564;2023-12-20T03:36:49;100766.53;;;6.62;81.02
56456;BME280;42354;53.218;6.564;2023-12-20T03:39:15;100783.88;;;6.62;80.55
56456;BME280;42354;53.218;6.564;2023-12-20T03:41:40;100776.72;;;6.61;80.38
56456;BME280;42354;53.218;6.564;2023-12-20T03:44:06;100763.06;;;6.49;80.35
56456;BME280;42354;53.218;6.564;2023-12-20T03:46:31;100755.72;;;6.55;80.32
56456;BME280;42354;53.218;6.564;2023-12-20T03:48:57;100756.22;;;6.52;80.42
56456;BME280;42354;53.218;6.564;2023-12-20T03:51:22;100744.25;;;6.41;80.66
56456;BME280;42354;53.218;6.564;2023-12-20T03:53:48;100760.91;;;6.52;80.84
56456;BME280;42354;53.218;6.564;2023-12-20T03:56:13;100757.41;;;6.56;80.93
56456;BME280;42354;53.218;6.564;2023-12-20T03:58:39;100761.22;;;6.55;80.88
56456;BME280;42354;53.218;6.564;2023-12-20T04:01:09;100749.06;;;6.51;81.22
56456;BME280;42354;53.218;6.564;2023-12-20T04:03:37;100747.88;;;6.47;81.51
56456;BME280;42354;53.218;6.564;2023-12-20T04:06:03;100742.91;;;6.44;81.38
56456;BME280;42354;53.218;6.564;2023-12-20T04:08:28;100751.94;;;6.39;81.92
56456;BME280;42354;53.218;6.564;2023-12-20T04:10:54;100744.50;;;6.40;81.61
56456;BME280;42354;53.218;6.564;2023-12-20T04:13:19;100727.25;;;6.28;81.73
56456;BME280;42354;53.218;6.564;2023-12-20T04:15:45;100742.75;;;6.34;81.92
56456;BME280;42354;53.218;6.564;2023-12-20T04:18:10;100723.38;;;6.24;81.70
56456;BME280;42354;53.218;6.564;2023-12-20T04:20:36;100743.06;;;6.37;81.79
56456;BME280;42354;53.218;6.564;2023-12-20T04:23:01;100740.06;;;6.39;81.79
56456;BME280;42354;53.218;6.564;2023-12-20T04:25:26;100708.03;;;6.28;81.76
56456;BME280;42354;53.218;6.564;2023-12-20T04:27:52;100707.75;;;6.29;81.73
56456;BME280;42354;53.218;6.564;2023-12-20T04:30:18;100732.72;;;6.44;81.55
56456;BME280;42354;53.218;6.564;2023-12-20T04:32:43;100712.22;;;6.52;81.23
56456;BME280;42354;53.218;6.564;2023-12-20T04:35:09;100702.22;;;6.46;81.21
56456;BME280;42354;53.218;6.564;2023-12-20T04:37:35;100720.69;;;6.67;80.70
56456;BME280;42354;53.218;6.564;2023-12-20T04:40:00;100701.97;;;6.64;80.59
56456;BME280;42354;53.218;6.564;2023-12-20T04:42:26;100702.91;;;6.75;80.03
56456;BME280;42354;53.218;6.564;2023-12-20T04:44:52;100717.94;;;6.89;79.89
56456;BME280;42354;53.218;6.564;2023-12-20T04:47:17;100701.00;;;6.75;79.62
56456;BME280;42354;53.218;6.564;2023-12-20T04:49:43;100707.63;;;6.80;79.87
56456;BME280;42354;53.218;6.564;2023-12-20T04:52:09;100685.13;;;6.83;78.96
56456;BME280;42354;53.218;6.564;2023-12-20T04:54:34;100718.25;;;6.93;79.01
56456;BME280;42354;53.218;6.564;2023-12-20T04:57:00;100727.16;;;7.00;78.91
56456;BME280;42354;53.218;6.564;2023-12-20T04:59:25;100692.97;;;6.96;78.64
56456;BME280;42354;53.218;6.564;2023-12-20T05:01:51;100723.38;;;7.06;79.10
56456;BME280;42354;53.218;6.564;2023-12-20T05:04:16;100703.53;;;7.04;78.67
56456;BME280;42354;53.218;6.564;2023-12-20T05:06:42;100683.16;;;7.05;78.71
56456;BME280;42354;53.218;6.564;2023-12-20T05:09:08;100696.94;;;7.05;78.48
56456;BME280;42354;53.218;6.564;2023-12-20T05:11:34;100735.84;;;7.14;78.77
56456;BME280;42354;53.218;6.564;2023-12-20T05:13:59;100711.03;;;7.09;78.91
56456;BME280;42354;53.218;6.564;2023-12-20T05:16:25;100733.91;;;7.14;79.23
56456;BME280;42354;53.218;6.564;2023-12-20T05:18:50;100718.47;;;7.08;79.64
56456;BME280;42354;53.218;6.564;2023-12-20T05:21:17;100736.63;;;7.09;79.86
56456;BME280;42354;53.218;6.564;2023-12-20T05:23:43;100702.31;;;6.95;79.63
56456;BME280;42354;53.218;6.564;2023-12-20T05:26:09;100717.09;;;7.11;79.98
56456;BME280;42354;53.218;6.564;2023-12-20T05:28:34;100732.53;;;7.12;79.90
56456;BME280;42354;53.218;6.564;2023-12-20T05:31:00;100687.03;;;7.04;79.34
56456;BME280;42354;53.218;6.564;2023-12-20T05:33:25;100700.50;;;7.27;78.87
56456;BME280;42354;53.218;6.564;2023-12-20T05:35:51;100718.13;;;7.26;78.70
56456;BME280;42354;53.218;6.564;2023-12-20T05:38:16;100710.41;;;7.28;78.54
56456;BME280;42354;53.218;6.564;2023-12-20T05:40:42;100704.88;;;7.23;79.00
56456;BME280;42354;53.218;6.564;2023-12-20T05:43:07;100684.53;;;7.29;78.69
56456;BME280;42354;53.218;6.564;2023-12-20T05:45:33;100691.72;;;7.30;78.43
56456;BME280;42354;53.218;6.564;2023-12-20T05:47:58;100686.16;;;7.25;78.77
56456;BME280;42354;53.218;6.564;2023-12-20T05:50:24;100684.75;;;7.23;79.21
56456;BME280;42354;53.218;6.564;2023-12-20T05:52:49;100690.00;;;7.24;79.08
56456;BME280;42354;53.218;6.564;2023-12-20T05:55:15;100692.50;;;7.26;79.02
56456;BME280;42354;53.218;6.564;2023-12-20T05:57:41;100687.00;;;7.26;78.98
56456;BME280;42354;53.218;6.564;2023-12-20T06:00:09;100686.91;;;7.16;79.48
56456;BME280;42354;53.218;6.564;2023-12-20T06:02:35;100704.09;;;7.28;79.38
56456;BME280;42354;53.218;6.564;2023-12-20T06:05:04;100675.06;;;7.15;79.50
56456;BME280;42354;53.218;6.564;2023-12-20T06:07:30;100693.06;;;7.28;79.73
56456;BME280;42354;53.218;6.564;2023-12-20T06:09:55;100682.38;;;7.31;79.51
56456;BME280;42354;53.218;6.564;2023-12-20T06:12:21;100662.94;;;7.16;79.62
56456;BME280;42354;53.218;6.564;2023-12-20T06:14:46;100678.84;;;7.36;79.34
56456;BME280;42354;53.218;6.564;2023-12-20T06:17:12;100662.50;;;7.29;79.04
56456;BME280;42354;53.218;6.564;2023-12-20T06:19:37;100650.06;;;7.49;79.01
56456;BME280;42354;53.218;6.564;2023-12-20T06:22:03;100681.75;;;7.51;78.41
56456;BME280;42354;53.218;6.564;2023-12-20T06:24:28;100658.78;;;7.41;78.41
56456;BME280;42354;53.218;6.564;2023-12-20T06:26:55;100658.31;;;7.49;78.59
56456;BME280;42354;53.218;6.564;2023-12-20T06:29:20;100663.84;;;7.54;78.58
56456;BME280;42354;53.218;6.564;2023-12-20T06:31:46;100669.63;;;7.52;78.55
56456;BME280;42354;53.218;6.564;2023-12-20T06:34:11;100661.91;;;7.49;78.74
56456;BME280;42354;53.218;6.564;2023-12-20T06:36:37;100680.91;;;7.51;78.42
56456;BME280;42354;53.218;6.564;2023-12-20T06:39:02;100655.56;;;7.49;78.60
56456;BME280;42354;53.218;6.564;2023-12-20T06:41:30;100645.59;;;7.43;78.67
56456;BME280;42354;53.218;6.564;2023-12-20T06:43:55;100651.19;;;7.53;78.51
56456;BME280;42354;53.218;6.564;2023-12-20T06:46:21;100625.75;;;7.41;77.88
56456;BME280;42354;53.218;6.564;2023-12-20T06:48:46;100639.16;;;7.64;77.83
56456;BME280;42354;53.218;6.564;2023-12-20T06:51:14;100647.66;;;7.57;78.04
56456;BME280;42354;53.218;6.564;2023-12-20T06:53:41;100644.66;;;7.64;78.02
56456;BME280;42354;53.218;6.564;2023-12-20T06:56:06;100638.31;;;7.63;77.89
56456;BME280;42354;53.218;6.564;2023-12-20T06:58:32;100630.03;;;7.58;77.97
56456;BME280;42354;53.218;6.564;2023-12-20T07:00:58;100641.91;;;7.64;77.84
56456;BME280;42354;53.218;6.564;2023-12-20T07:03:23;100641.41;;;7.67;77.93
56456;BME280;42354;53.218;6.564;2023-12-20T07:05:49;100632.88;;;7.69;77.73
56456;BME280;42354;53.218;6.564;2023-12-20T07:08:15;100645.84;;;7.73;77.58
56456;BME280;42354;53.218;6.564;2023-12-20T07:10:41;100629.00;;;7.70;77.16
56456;BME280;42354;53.218;6.564;2023-12-20T07:13:07;100621.63;;;7.75;77.39
56456;BME280;42354;53.218;6.564;2023-12-20T07:15:33;100604.59;;;7.83;76.67
56456;BME280;42354;53.218;6.564;2023-12-20T07:17:58;100616.97;;;7.81;76.87
56456;BME280;42354;53.218;6.564;2023-12-20T07:20:25;100604.88;;;7.82;76.85
56456;BME280;42354;53.218;6.564;2023-12-20T07:22:51;100607.91;;;7.85;76.60
56456;BME280;42354;53.218;6.564;2023-12-20T07:25:16;100611.78;;;7.89;76.59
56456;BME280;42354;53.218;6.564;2023-12-20T07:27:42;100591.03;;;7.77;76.33
56456;BME280;42354;53.218;6.564;2023-12-20T07:30:08;100620.63;;;7.92;76.33
56456;BME280;42354;53.218;6.564;2023-12-20T07:32:34;100626.16;;;7.92;76.59
56456;BME280;42354;53.218;6.564;2023-12-20T07:34:59;100596.91;;;7.85;76.67
56456;BME280;42354;53.218;6.564;2023-12-20T07:37:25;100601.97;;;8.04;76.04
56456;BME280;42354;53.218;6.564;2023-12-20T07:39:51;100618.47;;;7.99;76.06
56456;BME280;42354;53.218;6.564;2023-12-20T07:42:16;100612.09;;;7.93;76.11
56456;BME280;42354;53.218;6.564;2023-12-20T07:44:42;100623.34;;;7.86;76.40
56456;BME280;42354;53.218;6.564;2023-12-20T07:47:07;100627.28;;;7.96;76.47
56456;BME280;42354;53.218;6.564;2023-12-20T07:49:33;100605.22;;;7.96;76.29
56456;BME280;42354;53.218;6.564;2023-12-20T07:51:58;100605.69;;;7.82;76.43
56456;BME280;42354;53.218;6.564;2023-12-20T07:54:24;100609.34;;;7.93;76.39
56456;BME280;42354;53.218;6.564;2023-12-20T07:56:50;100609.03;;;7.89;76.00
56456;BME280;42354;53.218;6.564;2023-12-20T07:59:15;100616.78;;;7.93;75.75
56456;BME280;42354;53.218;6.564;2023-12-20T08:01:41;100612.88;;;7.88;75.92
56456;BME280;42354;53.218;6.564;2023-12-20T08:04:08;100596.84;;;7.80;75.83
56456;BME280;42354;53.218;6.564;2023-12-20T08:06:33;100641.09;;;8.01;75.53
56456;BME280;42354;53.218;6.564;2023-12-20T08:08:58;100592.75;;;7.88;75.39
56456;BME280;42354;53.218;6.564;2023-12-20T08:11:24;100631.72;;;8.02;75.78
56456;BME280;42354;53.218;6.564;2023-12-20T08:13:49;100601.84;;;7.83;75.66
56456;BME280;42354;53.218;6.564;2023-12-20T08:16:15;100610.78;;;8.01;75.62
56456;BME280;42354;53.218;6.564;2023-12-20T08:18:43;100633.09;;;7.99;75.37
56456;BME280;42354;53.218;6.564;2023-12-20T08:21:09;100606.66;;;8.03;75.61
56456;BME280;42354;53.218;6.564;2023-12-20T08:23:35;100625.66;;;8.00;75.61
56456;BME280;42354;53.218;6.564;2023-12-20T08:26:05;100632.00;;;8.05;75.92
56456;BME280;42354;53.218;6.564;2023-12-20T08:28:31;100624.25;;;7.97;75.59
56456;BME280;42354;53.218;6.564;2023-12-20T08:30:56;100616.81;;;7.98;75.82
56456;BME280;42354;53.218;6.564;2023-12-20T08:33:22;100618.50;;;8.04;75.29
56456;BME280;42354;53.218;6.564;2023-12-20T08:35:48;100608.03;;;8.01;75.16
56456;BME280;42354;53.218;6.564;2023-12-20T08:38:13;100646.03;;;7.99;74.27
56456;BME280;42354;53.218;6.564;2023-12-20T08:40:39;100682.50;;;7.47;73.24
56456;BME280;42354;53.218;6.564;2023-12-20T08:43:05;100698.22;;;6.97;73.50
56456;BME280;42354;53.218;6.564;2023-12-20T08:45:31;100697.50;;;6.63;74.67
56456;BME280;42354;53.218;6.564;2023-12-20T08:47:57;100679.13;;;6.25;75.88
56456;BME280;42354;53.218;6.564;2023-12-20T08:50:22;100699.47;;;6.07;77.60
56456;BME280;42354;53.218;6.564;2023-12-20T08:52:49;100696.09;;;5.72;79.10
56456;BME280;42354;53.218;6.564;2023-12-20T08:55:14;100690.38;;;5.28;80.99
56456;BME280;42354;53.218;6.564;2023-12-20T08:57:41;100700.34;;;5.17;81.80
56456;BME280;42354;53.218;6.564;2023-12-20T09:00:07;100702.59;;;5.20;82.47
56456;BME280;42354;53.218;6.564;2023-12-20T09:02:33;100677.66;;;4.93;83.54
56456;BME280;42354;53.218;6.564;2023-12-20T09:05:02;100739.84;;;5.16;84.27
56456;BME280;42354;53.218;6.564;2023-12-20T09:07:27;100730.81;;;5.04;84.71
56456;BME280;42354;53.218;6.564;2023-12-20T09:09:55;100742.34;;;5.18;85.21
56456;BME280;42354;53.218;6.564;2023-12-20T09:12:22;100744.50;;;5.16;85.47
56456;BME280;42354;53.218;6.564;2023-12-20T09:14:48;100746.75;;;5.19;85.96
56456;BME280;42354;53.218;6.564;2023-12-20T09:17:15;100736.47;;;5.26;86.02
56456;BME280;42354;53.218;6.564;2023-12-20T09:19:42;100743.72;;;5.32;86.10
56456;BME280;42354;53.218;6.564;2023-12-20T09:22:09;100704.50;;;5.20;85.32
56456;BME280;42354;53.218;6.564;2023-12-20T09:24:36;100720.81;;;5.26;84.95
56456;BME280;42354;53.218;6.564;2023-12-20T09:27:02;100722.09;;;5.35;84.41
56456;BME280;42354;53.218;6.564;2023-12-20T09:29:28;100731.91;;;5.31;84.63
56456;BME280;42354;53.218;6.564;2023-12-20T09:31:53;100738.47;;;5.30;84.46
56456;BME280;42354;53.218;6.564;2023-12-20T09:34:19;100731.66;;;5.33;84.06
56456;BME280;42354;53.218;6.564;2023-12-20T09:36:45;100730.31;;;5.35;82.79
56456;BME280;42354;53.218;6.564;2023-12-20T09:39:14;100734.25;;;5.40;82.49
56456;BME280;42354;53.218;6.564;2023-12-20T09:41:44;100747.75;;;5.41;81.64
56456;BME280;42354;53.218;6.564;2023-12-20T09:44:15;100733.91;;;5.36;80.76
56456;BME280;42354;53.218;6.564;2023-12-20T09:46:46;100756.41;;;5.50;81.30
56456;BME280;42354;53.218;6.564;2023-12-20T09:49:17;100741.50;;;5.46;80.61
56456;BME280;42354;53.218;6.564;2023-12-20T09:51:46;100755.63;;;5.66;80.22
56456;BME280;42354;53.218;6.564;2023-12-20T09:54:16;100719.91;;;5.66;79.40
56456;BME280;42354;53.218;6.564;2023-12-20T09:56:42;100725.84;;;5.75;79.16
56456;BME280;42354;53.218;6.564;2023-12-20T09:59:08;100726.66;;;5.75;79.28
56456;BME280;42354;53.218;6.564;2023-12-20T10:01:35;100723.56;;;5.72;78.98
56456;BME280;42354;53.218;6.564;2023-12-20T10:04:06;100728.56;;;5.75;78.25
56456;BME280;42354;53.218;6.564;2023-12-20T10:06:44;100721.41;;;5.74;77.99
56456;BME280;42354;53.218;6.564;2023-12-20T10:09:11;100768.66;;;6.04;77.81
56456;BME280;42354;53.218;6.564;2023-12-20T10:11:38;100741.19;;;6.04;77.68
56456;BME280;42354;53.218;6.564;2023-12-20T10:14:05;100773.94;;;6.23;77.51
56456;BME280;42354;53.218;6.564;2023-12-20T10:16:31;100766.66;;;6.33;77.26
56456;BME280;42354;53.218;6.564;2023-12-20T10:18:58;100755.59;;;6.28;77.24
56456;BME280;42354;53.218;6.564;2023-12-20T10:21:23;100748.56;;;6.37;77.02
56456;BME280;42354;53.218;6.564;2023-12-20T10:23:51;100734.09;;;6.42;77.32
56456;BME280;42354;53.218;6.564;2023-12-20T10:26:26;100758.47;;;6.55;77.13
56456;BME280;42354;53.218;6.564;2023-12-20T10:29:00;100759.63;;;6.59;76.84
56456;BME280;42354;53.218;6.564;2023-12-20T10:31:33;100737.72;;;6.64;76.81
56456;BME280;42354;53.218;6.564;2023-12-20T10:34:00;100706.41;;;6.48;76.97
56456;BME280;42354;53.218;6.564;2023-12-20T10:36:29;100743.59;;;6.73;76.67
56456;BME280;42354;53.218;6.564;2023-12-20T10:38:56;100729.91;;;6.78;76.08
56456;BME280;42354;53.218;6.564;2023-12-20T10:41:32;100732.16;;;6.81;76.11
56456;BME280;42354;53.218;6.564;2023-12-20T10:44:02;100712.66;;;6.83;75.78
56456;BME280;42354;53.218;6.564;2023-12-20T10:46:29;100726.13;;;6.84;75.65
56456;BME280;42354;53.218;6.564;2023-12-20T10:48:56;100698.69;;;6.67;75.70
56456;BME280;42354;53.218;6.564;2023-12-20T10:51:23;100717.63;;;6.86;75.66
56456;BME280;42354;53.218;6.564;2023-12-20T10:53:52;100714.88;;;6.86;75.22
56456;BME280;42354;53.218;6.564;2023-12-20T10:56:18;100698.81;;;6.77;75.05
56456;BME280;42354;53.218;6.564;2023-12-20T10:58:48;100721.22;;;6.86;75.19
56456;BME280;42354;53.218;6.564;2023-12-20T11:01:15;100722.56;;;6.84;75.23
56456;BME280;42354;53.218;6.564;2023-12-20T11:03:49;100721.47;;;6.85;74.69
56456;BME280;42354;53.218;6.564;2023-12-20T11:07:03;100719.81;;;6.84;74.69
56456;BME280;42354;53.218;6.564;2023-12-20T11:12:12;100729.78;;;6.90;74.66
56456;BME280;42354;53.218;6.564;2023-12-20T11:14:46;100722.97;;;6.97;73.86
56456;BME280;42354;53.218;6.564;2023-12-20T11:17:13;100717.25;;;6.99;73.93
56456;BME280;42354;53.218;6.564;2023-12-20T11:22:22;100708.72;;;7.00;73.11
56456;BME280;42354;53.218;6.564;2023-12-20T11:24:48;100686.72;;;7.00;73.07
56456;BME280;42354;53.218;6.564;2023-12-20T11:27:14;100708.00;;;7.10;72.98
56456;BME280;42354;53.218;6.564;2023-12-20T11:29:40;100700.84;;;7.09;73.40
56456;BME280;42354;53.218;6.564;2023-12-20T11:37:40;100707.63;;;7.23;72.26
56456;BME280;42354;53.218;6.564;2023-12-20T11:40:16;100700.22;;;7.29;72.18
56456;BME280;42354;53.218;6.564;2023-12-20T11:42:44;100701.97;;;7.35;72.01
56456;BME280;42354;53.218;6.564;2023-12-20T11:45:15;100695.34;;;7.36;72.46
56456;BME280;42354;53.218;6.564;2023-12-20T11:47:46;100692.91;;;7.40;71.87
56456;BME280;42354;53.218;6.564;2023-12-20T11:50:17;100693.22;;;7.43;72.15
56456;BME280;42354;53.218;6.564;2023-12-20T11:52:44;100695.44;;;7.46;72.49
56456;BME280;42354;53.218;6.564;2023-12-20T11:55:09;100690.78;;;7.47;72.39
56456;BME280;42354;53.218;6.564;2023-12-20T11:57:35;100692.44;;;7.48;72.38
56456;BME280;42354;53.218;6.564;2023-12-20T12:00:04;100691.38;;;7.49;72.40
56456;BME280;42354;53.218;6.564;2023-12-20T12:02:32;100682.56;;;7.52;72.78
56456;BME280;42354;53.218;6.564;2023-12-20T12:04:57;100683.41;;;7.52;72.34
56456;BME280;42354;53.218;6.564;2023-12-20T12:07:25;100667.41;;;7.49;72.42
56456;BME280;42354;53.218;6.564;2023-12-20T12:09:50;100664.06;;;7.47;72.47
56456;BME280;42354;53.218;6.564;2023-12-20T12:12:17;100654.19;;;7.51;72.18
56456;BME280;42354;53.218;6.564;2023-12-20T12:14:44;100657.72;;;7.47;72.54
56456;BME280;42354;53.218;6.564;2023-12-20T12:17:12;100656.41;;;7.49;72.21
56456;BME280;42354;53.218;6.564;2023-12-20T12:19:42;100659.38;;;7.48;72.12
56456;BME280;42354;53.218;6.564;2023-12-20T12:22:09;100643.09;;;7.41;71.70
56456;BME280;42354;53.218;6.564;2023-12-20T12:24:43;100651.31;;;7.36;72.23
56456;BME280;42354;53.218;6.564;2023-12-20T12:27:10;100648.91;;;7.45;72.15
56456;BME280;42354;53.218;6.564;2023-12-20T12:29:36;100639.19;;;7.37;71.97
56456;BME280;42354;53.218;6.564;2023-12-20T12:32:06;100638.91;;;7.33;71.95
56456;BME280;42354;53.218;6.564;2023-12-20T12:34:32;100603.72;;;7.41;72.07
56456;BME280;42354;53.218;6.564;2023-12-20T12:36:58;100649.47;;;7.47;71.04
56456;BME280;42354;53.218;6.564;2023-12-20T12:39:24;100645.38;;;7.49;71.20
56456;BME280;42354;53.218;6.564;2023-12-20T12:41:53;100657.78;;;7.52;71.45
56456;BME280;42354;53.218;6.564;2023-12-20T12:44:19;100655.03;;;7.52;71.46
56456;BME280;42354;53.218;6.564;2023-12-20T12:46:48;100627.63;;;7.35;71.37
56456;BME280;42354;53.218;6.564;2023-12-20T12:49:16;100645.47;;;7.59;71.01
56456;BME280;42354;53.218;6.564;2023-12-20T12:51:42;100622.25;;;7.50;70.76
56456;BME280;42354;53.218;6.564;2023-12-20T12:54:09;100624.72;;;7.52;70.93
56456;BME280;42354;53.218;6.564;2023-12-20T12:56:36;100631.75;;;7.70;70.38
56456;BME280;42354;53.218;6.564;2023-12-20T12:59:01;100642.78;;;7.70;70.28
56456;BME280;42354;53.218;6.564;2023-12-20T13:01:27;100635.34;;;7.70;69.95
56456;BME280;42354;53.218;6.564;2023-12-20T13:03:52;100649.69;;;7.72;69.70
56456;BME280;42354;53.218;6.564;2023-12-20T13:06:19;100642.50;;;7.71;69.70